CYYW

Armstrong Airport

Armstrong, Ontario, Canada
METAR CYYW 201400Z AUTO 00000KT 9SM BKN210 OVC240 19/15 A2987 RMK SLP104 DENSITY ALT 1700FT
Observed Flight Rules
Jul-20 @ 14:00 UTC (43 minutes ago) Visual Flight Rules
Visibility Clouds
9 miles
  • Broken at 21,000' AGL
  • Overcast at 24,000' AGL
Temperatures Readings
Current 19°C / 66°F
Dewpoint 15°C / 59°F
Humidity 78%
Altimeter 29.87" Hg
Pressure 1010.4 hPa
Elevation 351
METAR CYYW 201400Z AUTO 00000KT 9SM BKN210 OVC240 19/15 A2987 RMK SLP104 DENSITY ALT 1700FT
Observed Flight Rules
Jul-20 @ 14:00 UTC
(43 minutes ago)
VFR
Clouds
  • Broken at 21,000' AGL
  • Overcast at 24,000' AGL
Temperature Dewpoint
19°C / 66°F 15°C / 59°F
Humidity Altimeter Pressure
78% 29.87" Hg 1010.4 hPa